sensor_id;sensor_type;location;lat;lon;timestamp;temperature;humidity
69084;SHT31;56185;48.526;9.044;2023-12-29T00:02:09;8.84;81.35
69084;SHT31;56185;48.526;9.044;2023-12-29T00:04:34;8.91;81.11
69084;SHT31;56185;48.526;9.044;2023-12-29T00:07:01;8.91;81.06
69084;SHT31;56185;48.526;9.044;2023-12-29T00:09:26;8.98;80.70
69084;SHT31;56185;48.526;9.044;2023-12-29T00:11:52;8.94;80.16
69084;SHT31;56185;48.526;9.044;2023-12-29T00:14:17;9.00;79.76
69084;SHT31;56185;48.526;9.044;2023-12-29T00:16:42;8.95;79.78
69084;SHT31;56185;48.526;9.044;2023-12-29T00:19:08;9.01;79.42
69084;SHT31;56185;48.526;9.044;2023-12-29T00:21:33;9.02;79.28
69084;SHT31;56185;48.526;9.044;2023-12-29T00:23:58;9.08;78.76
69084;SHT31;56185;48.526;9.044;2023-12-29T00:26:23;9.18;78.58
69084;SHT31;56185;48.526;9.044;2023-12-29T00:28:50;9.16;77.96
69084;SHT31;56185;48.526;9.044;2023-12-29T00:31:16;9.19;78.45
69084;SHT31;56185;48.526;9.044;2023-12-29T00:33:42;9.22;78.37
69084;SHT31;56185;48.526;9.044;2023-12-29T00:36:07;9.18;78.55
69084;SHT31;56185;48.526;9.044;2023-12-29T00:38:33;9.23;77.21
69084;SHT31;56185;48.526;9.044;2023-12-29T00:40:59;9.23;77.45
69084;SHT31;56185;48.526;9.044;2023-12-29T00:43:24;9.26;77.78
69084;SHT31;56185;48.526;9.044;2023-12-29T00:45:49;9.31;77.35
69084;SHT31;56185;48.526;9.044;2023-12-29T00:48:15;9.23;77.59
69084;SHT31;56185;48.526;9.044;2023-12-29T00:50:40;9.29;76.88
69084;SHT31;56185;48.526;9.044;2023-12-29T00:53:05;9.29;76.70
69084;SHT31;56185;48.526;9.044;2023-12-29T00:55:30;9.32;77.54
69084;SHT31;56185;48.526;9.044;2023-12-29T00:57:55;9.38;77.72
69084;SHT31;56185;48.526;9.044;2023-12-29T01:00:21;9.32;77.60
69084;SHT31;56185;48.526;9.044;2023-12-29T01:02:46;9.32;77.24
69084;SHT31;56185;48.526;9.044;2023-12-29T01:05:15;9.23;78.88
69084;SHT31;56185;48.526;9.044;2023-12-29T01:07:40;9.23;79.15
69084;SHT31;56185;48.526;9.044;2023-12-29T01:10:06;9.19;79.42
69084;SHT31;56185;48.526;9.044;2023-12-29T01:12:31;9.18;79.92
69084;SHT31;56185;48.526;9.044;2023-12-29T01:14:57;9.12;79.96
69084;SHT31;56185;48.526;9.044;2023-12-29T01:17:22;9.11;80.60
69084;SHT31;56185;48.526;9.044;2023-12-29T01:19:47;9.04;80.29
69084;SHT31;56185;48.526;9.044;2023-12-29T01:22:12;9.08;80.55
69084;SHT31;56185;48.526;9.044;2023-12-29T01:24:37;9.08;80.04
69084;SHT31;56185;48.526;9.044;2023-12-29T01:27:03;9.02;80.02
69084;SHT31;56185;48.526;9.044;2023-12-29T01:29:28;9.07;79.82
69084;SHT31;56185;48.526;9.044;2023-12-29T01:31:53;9.05;80.21
69084;SHT31;56185;48.526;9.044;2023-12-29T01:34:18;8.87;80.57
69084;SHT31;56185;48.526;9.044;2023-12-29T01:36:44;8.95;80.93
69084;SHT31;56185;48.526;9.044;2023-12-29T01:39:09;8.95;80.33
69084;SHT31;56185;48.526;9.044;2023-12-29T01:41:34;8.95;80.64
69084;SHT31;56185;48.526;9.044;2023-12-29T01:46:25;9.04;79.98
69084;SHT31;56185;48.526;9.044;2023-12-29T01:48:51;9.10;79.63
69084;SHT31;56185;48.526;9.044;2023-12-29T01:51:17;9.12;79.29
69084;SHT31;56185;48.526;9.044;2023-12-29T01:53:45;9.02;79.27
69084;SHT31;56185;48.526;9.044;2023-12-29T01:56:10;9.05;79.75
69084;SHT31;56185;48.526;9.044;2023-12-29T01:58:36;9.04;80.25
69084;SHT31;56185;48.526;9.044;2023-12-29T02:01:02;9.08;80.34
69084;SHT31;56185;48.526;9.044;2023-12-29T02:03:28;8.97;80.61
69084;SHT31;56185;48.526;9.044;2023-12-29T02:05:54;9.05;80.96
69084;SHT31;56185;48.526;9.044;2023-12-29T02:08:21;9.07;80.83
69084;SHT31;56185;48.526;9.044;2023-12-29T02:10:48;9.08;81.18
69084;SHT31;56185;48.526;9.044;2023-12-29T02:13:13;8.89;81.26
69084;SHT31;56185;48.526;9.044;2023-12-29T02:15:38;9.00;81.49
69084;SHT31;56185;48.526;9.044;2023-12-29T02:18:06;8.92;81.26
69084;SHT31;56185;48.526;9.044;2023-12-29T02:20:32;9.00;81.68
69084;SHT31;56185;48.526;9.044;2023-12-29T02:22:57;8.95;81.48
69084;SHT31;56185;48.526;9.044;2023-12-29T02:25:23;9.00;81.35
69084;SHT31;56185;48.526;9.044;2023-12-29T02:27:59;8.92;81.93
69084;SHT31;56185;48.526;9.044;2023-12-29T02:30:39;8.98;81.87
69084;SHT31;56185;48.526;9.044;2023-12-29T02:33:10;8.94;81.92
69084;SHT31;56185;48.526;9.044;2023-12-29T02:35:39;8.95;82.11
69084;SHT31;56185;48.526;9.044;2023-12-29T02:38:06;9.01;82.12
69084;SHT31;56185;48.526;9.044;2023-12-29T02:40:31;9.01;82.11
69084;SHT31;56185;48.526;9.044;2023-12-29T02:42:57;8.91;82.34
69084;SHT31;56185;48.526;9.044;2023-12-29T02:45:22;8.88;82.69
69084;SHT31;56185;48.526;9.044;2023-12-29T02:47:48;8.84;82.86
69084;SHT31;56185;48.526;9.044;2023-12-29T02:50:13;8.87;82.66
69084;SHT31;56185;48.526;9.044;2023-12-29T02:52:38;8.91;82.63
69084;SHT31;56185;48.526;9.044;2023-12-29T02:55:04;8.95;82.76
69084;SHT31;56185;48.526;9.044;2023-12-29T02:57:29;8.92;82.28
69084;SHT31;56185;48.526;9.044;2023-12-29T02:59:55;8.91;82.29
69084;SHT31;56185;48.526;9.044;2023-12-29T03:02:20;8.85;82.48
69084;SHT31;56185;48.526;9.044;2023-12-29T03:04:45;8.88;82.68
69084;SHT31;56185;48.526;9.044;2023-12-29T03:07:11;8.94;82.70
69084;SHT31;56185;48.526;9.044;2023-12-29T03:09:36;8.84;83.51
69084;SHT31;56185;48.526;9.044;2023-12-29T03:12:01;8.80;83.70
69084;SHT31;56185;48.526;9.044;2023-12-29T03:14:26;8.77;83.90
69084;SHT31;56185;48.526;9.044;2023-12-29T03:16:52;8.71;83.91
69084;SHT31;56185;48.526;9.044;2023-12-29T03:19:17;8.64;84.65
69084;SHT31;56185;48.526;9.044;2023-12-29T03:21:42;8.68;84.61
69084;SHT31;56185;48.526;9.044;2023-12-29T03:24:07;8.63;84.55
69084;SHT31;56185;48.526;9.044;2023-12-29T03:26:32;8.61;84.71
69084;SHT31;56185;48.526;9.044;2023-12-29T03:28:58;8.59;84.71
69084;SHT31;56185;48.526;9.044;2023-12-29T03:31:23;8.63;84.90
69084;SHT31;56185;48.526;9.044;2023-12-29T03:33:48;8.64;84.57
69084;SHT31;56185;48.526;9.044;2023-12-29T03:36:14;8.57;85.18
69084;SHT31;56185;48.526;9.044;2023-12-29T03:38:39;8.54;85.07
69084;SHT31;56185;48.526;9.044;2023-12-29T03:41:04;8.52;85.22
69084;SHT31;56185;48.526;9.044;2023-12-29T03:43:29;8.50;85.42
69084;SHT31;56185;48.526;9.044;2023-12-29T03:45:55;8.56;85.40
69084;SHT31;56185;48.526;9.044;2023-12-29T03:48:20;8.56;85.33
69084;SHT31;56185;48.526;9.044;2023-12-29T03:50:45;8.57;85.52
69084;SHT31;56185;48.526;9.044;2023-12-29T03:53:11;8.63;85.31
69084;SHT31;56185;48.526;9.044;2023-12-29T03:55:36;8.65;85.15
69084;SHT31;56185;48.526;9.044;2023-12-29T03:58:02;8.60;85.05
69084;SHT31;56185;48.526;9.044;2023-12-29T04:00:27;8.61;85.38
69084;SHT31;56185;48.526;9.044;2023-12-29T04:02:52;8.65;85.14
69084;SHT31;56185;48.526;9.044;2023-12-29T04:05:19;8.73;85.11
69084;SHT31;56185;48.526;9.044;2023-12-29T04:07:44;8.67;85.35
69084;SHT31;56185;48.526;9.044;2023-12-29T04:10:10;8.65;85.19
69084;SHT31;56185;48.526;9.044;2023-12-29T04:12:35;8.65;85.54
69084;SHT31;56185;48.526;9.044;2023-12-29T04:15:00;8.61;85.74
69084;SHT31;56185;48.526;9.044;2023-12-29T04:17:26;8.56;85.72
69084;SHT31;56185;48.526;9.044;2023-12-29T04:19:51;8.60;85.73
69084;SHT31;56185;48.526;9.044;2023-12-29T04:22:16;8.59;85.81
69084;SHT31;56185;48.526;9.044;2023-12-29T04:24:41;8.68;85.59
69084;SHT31;56185;48.526;9.044;2023-12-29T04:27:07;8.60;85.83
69084;SHT31;56185;48.526;9.044;2023-12-29T04:29:32;8.67;85.61
69084;SHT31;56185;48.526;9.044;2023-12-29T04:31:57;8.64;85.83
69084;SHT31;56185;48.526;9.044;2023-12-29T04:34:22;8.68;85.67
69084;SHT31;56185;48.526;9.044;2023-12-29T04:36:48;8.70;85.68
69084;SHT31;56185;48.526;9.044;2023-12-29T04:39:13;8.71;85.60
69084;SHT31;56185;48.526;9.044;2023-12-29T04:41:38;8.63;86.01
69084;SHT31;56185;48.526;9.044;2023-12-29T04:44:04;8.63;85.87
69084;SHT31;56185;48.526;9.044;2023-12-29T04:46:29;8.65;85.88
69084;SHT31;56185;48.526;9.044;2023-12-29T04:48:54;8.67;85.78
69084;SHT31;56185;48.526;9.044;2023-12-29T04:51:19;8.75;85.65
69084;SHT31;56185;48.526;9.044;2023-12-29T04:53:45;8.64;86.03
69084;SHT31;56185;48.526;9.044;2023-12-29T04:56:10;8.68;85.94
69084;SHT31;56185;48.526;9.044;2023-12-29T04:58:35;8.65;86.02
69084;SHT31;56185;48.526;9.044;2023-12-29T05:01:00;8.71;86.00
69084;SHT31;56185;48.526;9.044;2023-12-29T05:03:26;8.64;86.36
69084;SHT31;56185;48.526;9.044;2023-12-29T05:05:51;8.71;85.83
69084;SHT31;56185;48.526;9.044;2023-12-29T05:08:16;8.56;86.38
69084;SHT31;56185;48.526;9.044;2023-12-29T05:10:41;8.71;85.95
69084;SHT31;56185;48.526;9.044;2023-12-29T05:13:07;8.71;85.88
69084;SHT31;56185;48.526;9.044;2023-12-29T05:15:32;8.70;85.96
69084;SHT31;56185;48.526;9.044;2023-12-29T05:17:57;8.68;86.10
69084;SHT31;56185;48.526;9.044;2023-12-29T05:20:22;8.75;85.72
69084;SHT31;56185;48.526;9.044;2023-12-29T05:22:47;8.68;85.67
69084;SHT31;56185;48.526;9.044;2023-12-29T05:25:13;8.73;85.93
69084;SHT31;56185;48.526;9.044;2023-12-29T05:27:38;8.64;85.87
69084;SHT31;56185;48.526;9.044;2023-12-29T05:30:04;8.77;85.72
69084;SHT31;56185;48.526;9.044;2023-12-29T05:32:29;8.75;85.56
69084;SHT31;56185;48.526;9.044;2023-12-29T05:34:54;8.82;85.44
69084;SHT31;56185;48.526;9.044;2023-12-29T05:37:20;8.78;85.69
69084;SHT31;56185;48.526;9.044;2023-12-29T05:39:45;8.71;85.63
69084;SHT31;56185;48.526;9.044;2023-12-29T05:42:10;8.82;85.20
69084;SHT31;56185;48.526;9.044;2023-12-29T05:44:36;8.81;85.42
69084;SHT31;56185;48.526;9.044;2023-12-29T05:47:02;8.81;85.54
69084;SHT31;56185;48.526;9.044;2023-12-29T05:49:27;8.82;85.35
69084;SHT31;56185;48.526;9.044;2023-12-29T05:51:52;8.89;85.45
69084;SHT31;56185;48.526;9.044;2023-12-29T05:54:17;8.88;85.40
69084;SHT31;56185;48.526;9.044;2023-12-29T05:56:43;8.89;85.42
69084;SHT31;56185;48.526;9.044;2023-12-29T05:59:08;8.92;85.10
69084;SHT31;56185;48.526;9.044;2023-12-29T06:01:33;8.88;85.43
69084;SHT31;56185;48.526;9.044;2023-12-29T06:03:59;8.87;85.48
69084;SHT31;56185;48.526;9.044;2023-12-29T06:06:24;8.94;85.59
69084;SHT31;56185;48.526;9.044;2023-12-29T06:08:49;8.80;86.01
69084;SHT31;56185;48.526;9.044;2023-12-29T06:11:15;8.97;85.62
69084;SHT31;56185;48.526;9.044;2023-12-29T06:13:40;8.97;85.59
69084;SHT31;56185;48.526;9.044;2023-12-29T06:16:06;8.98;85.54
69084;SHT31;56185;48.526;9.044;2023-12-29T06:18:31;8.98;85.57
69084;SHT31;56185;48.526;9.044;2023-12-29T06:20:56;9.04;85.42
69084;SHT31;56185;48.526;9.044;2023-12-29T06:23:21;9.02;85.54
69084;SHT31;56185;48.526;9.044;2023-12-29T06:25:47;9.00;85.87
69084;SHT31;56185;48.526;9.044;2023-12-29T06:28:12;9.01;86.00
69084;SHT31;56185;48.526;9.044;2023-12-29T06:30:37;8.98;86.18
69084;SHT31;56185;48.526;9.044;2023-12-29T06:33:02;8.88;86.48
69084;SHT31;56185;48.526;9.044;2023-12-29T06:35:28;8.95;86.29
69084;SHT31;56185;48.526;9.044;2023-12-29T06:37:53;9.02;86.04
69084;SHT31;56185;48.526;9.044;2023-12-29T06:40:18;9.04;85.99
69084;SHT31;56185;48.526;9.044;2023-12-29T06:42:43;8.94;86.15
69084;SHT31;56185;48.526;9.044;2023-12-29T06:45:09;9.04;86.27
69084;SHT31;56185;48.526;9.044;2023-12-29T06:47:34;8.92;86.96
69084;SHT31;56185;48.526;9.044;2023-12-29T06:49:59;9.04;86.65
69084;SHT31;56185;48.526;9.044;2023-12-29T06:52:25;8.82;87.59
69084;SHT31;56185;48.526;9.044;2023-12-29T06:54:50;8.91;87.86
69084;SHT31;56185;48.526;9.044;2023-12-29T06:57:15;8.95;87.65
69084;SHT31;56185;48.526;9.044;2023-12-29T06:59:41;8.94;87.84
69084;SHT31;56185;48.526;9.044;2023-12-29T07:02:06;8.94;87.72
69084;SHT31;56185;48.526;9.044;2023-12-29T07:04:31;9.01;87.74
69084;SHT31;56185;48.526;9.044;2023-12-29T07:06:56;8.85;88.04
69084;SHT31;56185;48.526;9.044;2023-12-29T07:09:22;8.84;87.69
69084;SHT31;56185;48.526;9.044;2023-12-29T07:11:48;8.87;87.59
69084;SHT31;56185;48.526;9.044;2023-12-29T07:14:13;8.84;87.67
69084;SHT31;56185;48.526;9.044;2023-12-29T07:16:38;8.95;86.89
69084;SHT31;56185;48.526;9.044;2023-12-29T07:19:04;8.95;87.12
69084;SHT31;56185;48.526;9.044;2023-12-29T07:21:29;8.94;87.30
69084;SHT31;56185;48.526;9.044;2023-12-29T07:23:54;8.91;87.55
69084;SHT31;56185;48.526;9.044;2023-12-29T07:26:19;8.84;87.66
69084;SHT31;56185;48.526;9.044;2023-12-29T07:28:45;8.80;87.78
69084;SHT31;56185;48.526;9.044;2023-12-29T07:31:10;8.73;87.45
69084;SHT31;56185;48.526;9.044;2023-12-29T07:33:35;8.75;87.48
69084;SHT31;56185;48.526;9.044;2023-12-29T07:36:00;8.75;87.64
69084;SHT31;56185;48.526;9.044;2023-12-29T07:38:26;8.74;87.47
69084;SHT31;56185;48.526;9.044;2023-12-29T07:40:51;8.82;87.13
69084;SHT31;56185;48.526;9.044;2023-12-29T07:43:16;8.84;87.08
69084;SHT31;56185;48.526;9.044;2023-12-29T07:45:41;8.92;86.77
69084;SHT31;56185;48.526;9.044;2023-12-29T07:48:07;8.94;86.03
69084;SHT31;56185;48.526;9.044;2023-12-29T07:50:32;8.91;86.31
69084;SHT31;56185;48.526;9.044;2023-12-29T07:52:57;8.89;86.29
69084;SHT31;56185;48.526;9.044;2023-12-29T07:55:23;8.98;85.76
69084;SHT31;56185;48.526;9.044;2023-12-29T07:57:48;9.07;85.48
69084;SHT31;56185;48.526;9.044;2023-12-29T08:00:16;9.07;84.80
69084;SHT31;56185;48.526;9.044;2023-12-29T08:02:42;9.14;84.63
69084;SHT31;56185;48.526;9.044;2023-12-29T08:05:07;9.14;85.17
69084;SHT31;56185;48.526;9.044;2023-12-29T08:07:32;9.21;84.50
69084;SHT31;56185;48.526;9.044;2023-12-29T08:09:58;9.26;84.79
69084;SHT31;56185;48.526;9.044;2023-12-29T08:12:24;9.38;84.63
69084;SHT31;56185;48.526;9.044;2023-12-29T08:14:49;9.46;84.68
69084;SHT31;56185;48.526;9.044;2023-12-29T08:17:14;9.38;85.01
69084;SHT31;56185;48.526;9.044;2023-12-29T08:19:40;9.60;84.16
69084;SHT31;56185;48.526;9.044;2023-12-29T08:22:05;9.67;84.76
69084;SHT31;56185;48.526;9.044;2023-12-29T08:24:30;9.73;84.01
69084;SHT31;56185;48.526;9.044;2023-12-29T08:26:55;9.77;83.94
69084;SHT31;56185;48.526;9.044;2023-12-29T08:29:21;9.89;84.64
69084;SHT31;56185;48.526;9.044;2023-12-29T08:31:47;9.91;83.92
69084;SHT31;56185;48.526;9.044;2023-12-29T08:34:12;10.01;84.25
69084;SHT31;56185;48.526;9.044;2023-12-29T08:36:37;10.07;83.70
69084;SHT31;56185;48.526;9.044;2023-12-29T08:39:03;9.97;83.86
69084;SHT31;56185;48.526;9.044;2023-12-29T08:41:28;9.91;84.24
69084;SHT31;56185;48.526;9.044;2023-12-29T08:43:53;9.94;83.98
69084;SHT31;56185;48.526;9.044;2023-12-29T08:46:18;10.04;83.86
69084;SHT31;56185;48.526;9.044;2023-12-29T08:48:44;10.08;83.66
69084;SHT31;56185;48.526;9.044;2023-12-29T08:51:09;10.22;83.68
69084;SHT31;56185;48.526;9.044;2023-12-29T08:53:34;10.34;83.43
69084;SHT31;56185;48.526;9.044;2023-12-29T08:55:59;10.45;83.57
69084;SHT31;56185;48.526;9.044;2023-12-29T08:58:25;10.49;82.85
69084;SHT31;56185;48.526;9.044;2023-12-29T09:00:50;10.37;83.20
69084;SHT31;56185;48.526;9.044;2023-12-29T09:03:15;10.35;83.22
69084;SHT31;56185;48.526;9.044;2023-12-29T09:05:40;10.34;82.75
69084;SHT31;56185;48.526;9.044;2023-12-29T09:08:06;10.45;82.92
69084;SHT31;56185;48.526;9.044;2023-12-29T09:10:31;10.55;82.40
69084;SHT31;56185;48.526;9.044;2023-12-29T09:12:56;10.66;81.88
69084;SHT31;56185;48.526;9.044;2023-12-29T09:15:22;10.63;82.29
69084;SHT31;56185;48.526;9.044;2023-12-29T09:17:47;10.63;82.46
69084;SHT31;56185;48.526;9.044;2023-12-29T09:20:12;10.70;82.12
69084;SHT31;56185;48.526;9.044;2023-12-29T09:22:38;10.79;81.82
69084;SHT31;56185;48.526;9.044;2023-12-29T09:25:04;10.89;81.03
69084;SHT31;56185;48.526;9.044;2023-12-29T09:27:29;10.99;80.48
69084;SHT31;56185;48.526;9.044;2023-12-29T09:29:54;11.13;80.49
69084;SHT31;56185;48.526;9.044;2023-12-29T09:32:19;11.26;79.93
69084;SHT31;56185;48.526;9.044;2023-12-29T09:34:45;11.24;79.35
69084;SHT31;56185;48.526;9.044;2023-12-29T09:37:10;11.06;79.68
69084;SHT31;56185;48.526;9.044;2023-12-29T09:39:35;11.11;79.66
69084;SHT31;56185;48.526;9.044;2023-12-29T09:42:03;10.99;80.29
69084;SHT31;56185;48.526;9.044;2023-12-29T09:44:30;11.03;80.16
69084;SHT31;56185;48.526;9.044;2023-12-29T09:47:00;11.00;80.63
69084;SHT31;56185;48.526;9.044;2023-12-29T09:49:27;10.86;80.79
69084;SHT31;56185;48.526;9.044;2023-12-29T09:51:57;10.79;80.77
69084;SHT31;56185;48.526;9.044;2023-12-29T09:54:23;10.80;80.31
69084;SHT31;56185;48.526;9.044;2023-12-29T09:56:49;10.83;80.43
69084;SHT31;56185;48.526;9.044;2023-12-29T09:59:16;10.88;79.68
69084;SHT31;56185;48.526;9.044;2023-12-29T10:01:44;10.84;79.95
69084;SHT31;56185;48.526;9.044;2023-12-29T10:04:11;10.83;80.76
69084;SHT31;56185;48.526;9.044;2023-12-29T10:06:38;10.89;80.12
69084;SHT31;56185;48.526;9.044;2023-12-29T10:09:07;10.89;79.87
69084;SHT31;56185;48.526;9.044;2023-12-29T10:11:37;10.83;80.25
69084;SHT31;56185;48.526;9.044;2023-12-29T10:14:13;10.90;80.98
69084;SHT31;56185;48.526;9.044;2023-12-29T10:16:42;10.95;80.73
69084;SHT31;56185;48.526;9.044;2023-12-29T10:19:39;10.99;79.80
69084;SHT31;56185;48.526;9.044;2023-12-29T10:22:27;11.01;80.10
69084;SHT31;56185;48.526;9.044;2023-12-29T10:24:56;10.99;79.85
69084;SHT31;56185;48.526;9.044;2023-12-29T10:27:21;11.10;79.76
69084;SHT31;56185;48.526;9.044;2023-12-29T10:29:47;11.23;78.51
69084;SHT31;56185;48.526;9.044;2023-12-29T10:32:12;11.41;78.64
69084;SHT31;56185;48.526;9.044;2023-12-29T10:34:37;11.45;77.63
69084;SHT31;56185;48.526;9.044;2023-12-29T10:37:02;11.65;77.43
69084;SHT31;56185;48.526;9.044;2023-12-29T10:39:28;11.77;76.04
69084;SHT31;56185;48.526;9.044;2023-12-29T10:42:06;11.79;75.63
69084;SHT31;56185;48.526;9.044;2023-12-29T10:44:33;11.81;74.88
69084;SHT31;56185;48.526;9.044;2023-12-29T10:46:58;11.79;75.61
69084;SHT31;56185;48.526;9.044;2023-12-29T10:49:24;11.78;75.01
69084;SHT31;56185;48.526;9.044;2023-12-29T10:51:49;11.74;75.46
69084;SHT31;56185;48.526;9.044;2023-12-29T10:54:21;11.90;75.29
69084;SHT31;56185;48.526;9.044;2023-12-29T10:56:46;11.90;74.49
69084;SHT31;56185;48.526;9.044;2023-12-29T10:59:12;11.96;74.35
69084;SHT31;56185;48.526;9.044;2023-12-29T11:01:37;12.03;73.56
69084;SHT31;56185;48.526;9.044;2023-12-29T11:04:06;11.92;74.01
69084;SHT31;56185;48.526;9.044;2023-12-29T11:06:42;11.93;73.75
69084;SHT31;56185;48.526;9.044;2023-12-29T11:09:07;11.88;73.65
69084;SHT31;56185;48.526;9.044;2023-12-29T11:11:34;11.98;73.70
69084;SHT31;56185;48.526;9.044;2023-12-29T11:13:59;11.99;73.71
69084;SHT31;56185;48.526;9.044;2023-12-29T11:16:25;11.83;73.17
69084;SHT31;56185;48.526;9.044;2023-12-29T11:18:51;11.83;74.09
69084;SHT31;56185;48.526;9.044;2023-12-29T11:21:19;11.85;74.11
69084;SHT31;56185;48.526;9.044;2023-12-29T11:23:47;11.90;73.93
69084;SHT31;56185;48.526;9.044;2023-12-29T11:26:12;11.72;74.19
69084;SHT31;56185;48.526;9.044;2023-12-29T11:28:38;11.71;74.01
69084;SHT31;56185;48.526;9.044;2023-12-29T11:31:03;11.71;74.16
69084;SHT31;56185;48.526;9.044;2023-12-29T11:33:38;11.72;73.44
69084;SHT31;56185;48.526;9.044;2023-12-29T11:36:18;11.82;74.22
69084;SHT31;56185;48.526;9.044;2023-12-29T11:39:14;11.86;73.11
69084;SHT31;56185;48.526;9.044;2023-12-29T11:44:29;11.78;72.89
69084;SHT31;56185;48.526;9.044;2023-12-29T11:46:56;11.75;73.25
69084;SHT31;56185;48.526;9.044;2023-12-29T11:49:21;11.86;73.19
69084;SHT31;56185;48.526;9.044;2023-12-29T11:51:47;11.90;72.65
69084;SHT31;56185;48.526;9.044;2023-12-29T11:54:26;12.06;72.10
69084;SHT31;56185;48.526;9.044;2023-12-29T11:56:53;12.19;71.34
69084;SHT31;56185;48.526;9.044;2023-12-29T11:59:26;12.12;71.70
69084;SHT31;56185;48.526;9.044;2023-12-29T12:01:53;12.16;72.13
69084;SHT31;56185;48.526;9.044;2023-12-29T12:07:04;12.25;70.14
69084;SHT31;56185;48.526;9.044;2023-12-29T12:09:29;12.22;70.44
69084;SHT31;56185;48.526;9.044;2023-12-29T12:11:54;12.12;71.64
69084;SHT31;56185;48.526;9.044;2023-12-29T12:17:10;12.09;70.74
69084;SHT31;56185;48.526;9.044;2023-12-29T12:19:36;12.10;70.47
69084;SHT31;56185;48.526;9.044;2023-12-29T12:22:01;12.12;71.49
69084;SHT31;56185;48.526;9.044;2023-12-29T12:24:27;12.15;71.50
69084;SHT31;56185;48.526;9.044;2023-12-29T12:26:54;12.02;71.35
69084;SHT31;56185;48.526;9.044;2023-12-29T12:29:19;12.12;71.66
69084;SHT31;56185;48.526;9.044;2023-12-29T12:31:52;12.05;70.79
69084;SHT31;56185;48.526;9.044;2023-12-29T12:34:17;12.00;72.36
69084;SHT31;56185;48.526;9.044;2023-12-29T12:36:49;12.03;71.94
69084;SHT31;56185;48.526;9.044;2023-12-29T12:39:15;11.99;71.57
69084;SHT31;56185;48.526;9.044;2023-12-29T12:41:40;11.93;71.54
69084;SHT31;56185;48.526;9.044;2023-12-29T12:44:13;12.03;71.09
69084;SHT31;56185;48.526;9.044;2023-12-29T12:46:50;11.96;71.18
69084;SHT31;56185;48.526;9.044;2023-12-29T12:49:16;12.10;71.66
69084;SHT31;56185;48.526;9.044;2023-12-29T12:51:42;12.16;71.77
69084;SHT31;56185;48.526;9.044;2023-12-29T12:54:08;12.20;70.41
69084;SHT31;56185;48.526;9.044;2023-12-29T12:56:34;12.22;70.33
69084;SHT31;56185;48.526;9.044;2023-12-29T12:59:02;12.20;69.01
69084;SHT31;56185;48.526;9.044;2023-12-29T13:01:28;12.10;70.18
69084;SHT31;56185;48.526;9.044;2023-12-29T13:03:54;12.26;69.39
69084;SHT31;56185;48.526;9.044;2023-12-29T13:06:20;12.20;69.61
69084;SHT31;56185;48.526;9.044;2023-12-29T13:08:48;12.27;68.79
69084;SHT31;56185;48.526;9.044;2023-12-29T13:11:18;12.27;68.85
69084;SHT31;56185;48.526;9.044;2023-12-29T13:13:43;12.34;66.25
69084;SHT31;56185;48.526;9.044;2023-12-29T13:16:09;12.25;65.93
69084;SHT31;56185;48.526;9.044;2023-12-29T13:18:34;12.22;65.43
69084;SHT31;56185;48.526;9.044;2023-12-29T13:21:01;12.18;65.31
69084;SHT31;56185;48.526;9.044;2023-12-29T13:23:27;12.22;65.31
69084;SHT31;56185;48.526;9.044;2023-12-29T13:26:03;12.15;65.46
69084;SHT31;56185;48.526;9.044;2023-12-29T13:28:30;12.19;64.97
69084;SHT31;56185;48.526;9.044;2023-12-29T13:30:56;12.19;65.15
69084;SHT31;56185;48.526;9.044;2023-12-29T13:33:42;12.19;65.50
69084;SHT31;56185;48.526;9.044;2023-12-29T13:38:53;12.15;65.10
69084;SHT31;56185;48.526;9.044;2023-12-29T13:41:22;12.08;65.31
69084;SHT31;56185;48.526;9.044;2023-12-29T13:43:49;12.12;64.52
69084;SHT31;56185;48.526;9.044;2023-12-29T13:46:16;12.18;64.37
69084;SHT31;56185;48.526;9.044;2023-12-29T13:48:41;11.98;63.94
69084;SHT31;56185;48.526;9.044;2023-12-29T13:51:08;11.98;62.87
69084;SHT31;56185;48.526;9.044;2023-12-29T13:53:34;12.03;63.47
69084;SHT31;56185;48.526;9.044;2023-12-29T13:56:07;11.99;62.90
69084;SHT31;56185;48.526;9.044;2023-12-29T13:58:33;11.93;62.43
69084;SHT31;56185;48.526;9.044;2023-12-29T14:00:58;11.96;63.07
69084;SHT31;56185;48.526;9.044;2023-12-29T14:03:27;11.95;63.44
69084;SHT31;56185;48.526;9.044;2023-12-29T14:05:59;11.96;62.06
69084;SHT31;56185;48.526;9.044;2023-12-29T14:08:27;11.89;61.91
69084;SHT31;56185;48.526;9.044;2023-12-29T14:10:56;11.89;62.46
69084;SHT31;56185;48.526;9.044;2023-12-29T14:13:21;11.83;63.40
69084;SHT31;56185;48.526;9.044;2023-12-29T14:15:47;11.81;62.38
69084;SHT31;56185;48.526;9.044;2023-12-29T14:20:37;11.64;63.15
69084;SHT31;56185;48.526;9.044;2023-12-29T14:23:06;11.67;63.37
69084;SHT31;56185;48.526;9.044;2023-12-29T14:25:35;11.58;62.43
69084;SHT31;56185;48.526;9.044;2023-12-29T14:28:02;11.54;62.80
69084;SHT31;56185;48.526;9.044;2023-12-29T14:30:27;11.44;62.53
69084;SHT31;56185;48.526;9.044;2023-12-29T14:32:52;11.35;63.02
69084;SHT31;56185;48.526;9.044;2023-12-29T14:35:17;11.31;63.08
69084;SHT31;56185;48.526;9.044;2023-12-29T14:37:43;11.20;62.87
69084;SHT31;56185;48.526;9.044;2023-12-29T14:40:11;11.21;63.21
69084;SHT31;56185;48.526;9.044;2023-12-29T14:42:36;11.24;63.28
69084;SHT31;56185;48.526;9.044;2023-12-29T14:45:01;11.19;63.67
69084;SHT31;56185;48.526;9.044;2023-12-29T14:47:27;11.14;63.30
69084;SHT31;56185;48.526;9.044;2023-12-29T14:49:52;11.19;64.29
69084;SHT31;56185;48.526;9.044;2023-12-29T14:52:17;11.16;63.47
69084;SHT31;56185;48.526;9.044;2023-12-29T14:54:42;11.13;62.77
69084;SHT31;56185;48.526;9.044;2023-12-29T14:57:07;11.19;63.21
69084;SHT31;56185;48.526;9.044;2023-12-29T14:59:33;11.09;63.64
69084;SHT31;56185;48.526;9.044;2023-12-29T15:01:58;11.00;64.12
69084;SHT31;56185;48.526;9.044;2023-12-29T15:04:23;10.99;64.23
69084;SHT31;56185;48.526;9.044;2023-12-29T15:06:48;11.01;64.03
69084;SHT31;56185;48.526;9.044;2023-12-29T15:09:14;11.06;63.93
69084;SHT31;56185;48.526;9.044;2023-12-29T15:11:39;11.00;63.99
69084;SHT31;56185;48.526;9.044;2023-12-29T15:14:04;11.03;64.12
69084;SHT31;56185;48.526;9.044;2023-12-29T15:16:29;10.90;64.64
69084;SHT31;56185;48.526;9.044;2023-12-29T15:18:55;10.92;64.79
69084;SHT31;56185;48.526;9.044;2023-12-29T15:21:20;10.83;64.96
69084;SHT31;56185;48.526;9.044;2023-12-29T15:23:45;10.88;64.89
69084;SHT31;56185;48.526;9.044;2023-12-29T15:26:10;10.96;65.14
69084;SHT31;56185;48.526;9.044;2023-12-29T15:28:35;10.88;65.06
69084;SHT31;56185;48.526;9.044;2023-12-29T15:31:01;10.80;65.42
69084;SHT31;56185;48.526;9.044;2023-12-29T15:33:26;10.69;65.81
69084;SHT31;56185;48.526;9.044;2023-12-29T15:35:51;10.70;65.79
69084;SHT31;56185;48.526;9.044;2023-12-29T15:38:16;10.73;65.93
69084;SHT31;56185;48.526;9.044;2023-12-29T15:40:42;10.62;66.16
69084;SHT31;56185;48.526;9.044;2023-12-29T15:43:07;10.42;67.86
69084;SHT31;56185;48.526;9.044;2023-12-29T15:45:32;10.37;68.27
69084;SHT31;56185;48.526;9.044;2023-12-29T15:47:57;10.38;68.41
69084;SHT31;56185;48.526;9.044;2023-12-29T15:50:23;10.18;69.05